sensor_id;sensor_type;location;lat;lon;timestamp;P1;durP1;ratioP1;P2;durP2;ratioP2
15952;SDS011;8075;47.766;8.846;2024-01-15T00:01:20;7.93;;;6.00;;
15952;SDS011;8075;47.766;8.846;2024-01-15T00:03:46;6.68;;;6.00;;
15952;SDS011;8075;47.766;8.846;2024-01-15T00:06:12;6.85;;;6.18;;
15952;SDS011;8075;47.766;8.846;2024-01-15T00:08:38;6.43;;;5.65;;
15952;SDS011;8075;47.766;8.846;2024-01-15T00:11:04;6.53;;;5.63;;
15952;SDS011;8075;47.766;8.846;2024-01-15T00:13:30;7.28;;;5.88;;
15952;SDS011;8075;47.766;8.846;2024-01-15T00:15:56;6.07;;;5.47;;
15952;SDS011;8075;47.766;8.846;2024-01-15T00:18:22;6.07;;;5.38;;
15952;SDS011;8075;47.766;8.846;2024-01-15T00:20:48;6.57;;;5.22;;
15952;SDS011;8075;47.766;8.846;2024-01-15T00:23:14;6.65;;;5.72;;
15952;SDS011;8075;47.766;8.846;2024-01-15T00:25:40;6.05;;;5.45;;
15952;SDS011;8075;47.766;8.846;2024-01-15T00:28:07;7.47;;;5.13;;
15952;SDS011;8075;47.766;8.846;2024-01-15T00:30:33;6.13;;;5.53;;
15952;SDS011;8075;47.766;8.846;2024-01-15T00:32:58;5.70;;;4.80;;
15952;SDS011;8075;47.766;8.846;2024-01-15T00:35:24;5.80;;;5.18;;
15952;SDS011;8075;47.766;8.846;2024-01-15T00:37:50;6.20;;;5.43;;
15952;SDS011;8075;47.766;8.846;2024-01-15T00:40:16;5.75;;;5.13;;
15952;SDS011;8075;47.766;8.846;2024-01-15T00:42:42;6.70;;;5.03;;
15952;SDS011;8075;47.766;8.846;2024-01-15T00:45:09;6.55;;;5.30;;
15952;SDS011;8075;47.766;8.846;2024-01-15T00:47:35;6.22;;;5.28;;
15952;SDS011;8075;47.766;8.846;2024-01-15T00:50:01;5.82;;;5.22;;
15952;SDS011;8075;47.766;8.846;2024-01-15T00:52:27;5.90;;;5.30;;
15952;SDS011;8075;47.766;8.846;2024-01-15T00:54:53;5.85;;;5.10;;
15952;SDS011;8075;47.766;8.846;2024-01-15T00:57:18;6.75;;;6.05;;
15952;SDS011;8075;47.766;8.846;2024-01-15T00:59:45;6.72;;;5.88;;
15952;SDS011;8075;47.766;8.846;2024-01-15T01:02:11;6.60;;;5.75;;
15952;SDS011;8075;47.766;8.846;2024-01-15T01:04:37;7.03;;;5.90;;
15952;SDS011;8075;47.766;8.846;2024-01-15T01:07:03;6.65;;;6.00;;
15952;SDS011;8075;47.766;8.846;2024-01-15T01:09:29;8.43;;;6.45;;
15952;SDS011;8075;47.766;8.846;2024-01-15T01:11:55;7.78;;;6.88;;
15952;SDS011;8075;47.766;8.846;2024-01-15T01:14:21;7.47;;;6.47;;
15952;SDS011;8075;47.766;8.846;2024-01-15T01:16:47;7.53;;;6.72;;
15952;SDS011;8075;47.766;8.846;2024-01-15T01:19:14;7.97;;;6.78;;
15952;SDS011;8075;47.766;8.846;2024-01-15T01:21:40;8.45;;;6.60;;
15952;SDS011;8075;47.766;8.846;2024-01-15T01:24:06;7.40;;;6.70;;
15952;SDS011;8075;47.766;8.846;2024-01-15T01:26:32;7.97;;;6.72;;
15952;SDS011;8075;47.766;8.846;2024-01-15T01:28:58;7.53;;;6.53;;
15952;SDS011;8075;47.766;8.846;2024-01-15T01:31:24;7.63;;;6.82;;
15952;SDS011;8075;47.766;8.846;2024-01-15T01:33:50;8.23;;;6.90;;
15952;SDS011;8075;47.766;8.846;2024-01-15T01:36:16;8.02;;;6.85;;
15952;SDS011;8075;47.766;8.846;2024-01-15T01:38:42;7.67;;;6.30;;
15952;SDS011;8075;47.766;8.846;2024-01-15T01:41:08;8.27;;;6.80;;
15952;SDS011;8075;47.766;8.846;2024-01-15T01:43:35;7.30;;;6.60;;
15952;SDS011;8075;47.766;8.846;2024-01-15T01:46:01;6.95;;;6.22;;
15952;SDS011;8075;47.766;8.846;2024-01-15T01:48:28;7.28;;;6.45;;
15952;SDS011;8075;47.766;8.846;2024-01-15T01:50:57;8.02;;;6.50;;
15952;SDS011;8075;47.766;8.846;2024-01-15T01:53:23;7.43;;;6.63;;
15952;SDS011;8075;47.766;8.846;2024-01-15T01:55:50;7.38;;;6.57;;
15952;SDS011;8075;47.766;8.846;2024-01-15T01:58:16;7.03;;;6.33;;
15952;SDS011;8075;47.766;8.846;2024-01-15T02:00:43;7.38;;;6.40;;
15952;SDS011;8075;47.766;8.846;2024-01-15T02:03:09;7.60;;;6.80;;
15952;SDS011;8075;47.766;8.846;2024-01-15T02:05:35;7.45;;;6.75;;
15952;SDS011;8075;47.766;8.846;2024-01-15T02:08:01;7.90;;;6.63;;
15952;SDS011;8075;47.766;8.846;2024-01-15T02:10:27;7.38;;;6.43;;
15952;SDS011;8075;47.766;8.846;2024-01-15T02:12:53;8.03;;;6.93;;
15952;SDS011;8075;47.766;8.846;2024-01-15T02:15:19;8.20;;;6.80;;
15952;SDS011;8075;47.766;8.846;2024-01-15T02:18:01;7.60;;;6.70;;
15952;SDS011;8075;47.766;8.846;2024-01-15T02:20:27;7.63;;;6.45;;
15952;SDS011;8075;47.766;8.846;2024-01-15T02:22:54;9.15;;;7.43;;
15952;SDS011;8075;47.766;8.846;2024-01-15T02:25:20;9.05;;;7.05;;
15952;SDS011;8075;47.766;8.846;2024-01-15T02:27:46;8.00;;;7.07;;
15952;SDS011;8075;47.766;8.846;2024-01-15T02:30:12;8.23;;;6.95;;
15952;SDS011;8075;47.766;8.846;2024-01-15T02:32:38;9.00;;;7.20;;
15952;SDS011;8075;47.766;8.846;2024-01-15T02:35:04;8.93;;;7.47;;
15952;SDS011;8075;47.766;8.846;2024-01-15T02:37:30;8.80;;;7.72;;
15952;SDS011;8075;47.766;8.846;2024-01-15T02:39:56;8.75;;;7.80;;
15952;SDS011;8075;47.766;8.846;2024-01-15T02:42:22;9.20;;;7.28;;
15952;SDS011;8075;47.766;8.846;2024-01-15T02:44:48;9.20;;;7.70;;
15952;SDS011;8075;47.766;8.846;2024-01-15T02:47:14;8.38;;;6.95;;
15952;SDS011;8075;47.766;8.846;2024-01-15T02:49:40;9.30;;;7.20;;
15952;SDS011;8075;47.766;8.846;2024-01-15T02:52:06;8.70;;;7.25;;
15952;SDS011;8075;47.766;8.846;2024-01-15T02:54:32;9.45;;;7.32;;
15952;SDS011;8075;47.766;8.846;2024-01-15T02:56:58;9.35;;;7.57;;
15952;SDS011;8075;47.766;8.846;2024-01-15T02:59:24;8.37;;;7.10;;
15952;SDS011;8075;47.766;8.846;2024-01-15T03:01:50;10.55;;;7.97;;
15952;SDS011;8075;47.766;8.846;2024-01-15T03:04:16;8.15;;;6.78;;
15952;SDS011;8075;47.766;8.846;2024-01-15T03:06:42;9.55;;;7.68;;
15952;SDS011;8075;47.766;8.846;2024-01-15T03:09:08;9.38;;;7.15;;
15952;SDS011;8075;47.766;8.846;2024-01-15T03:11:38;10.00;;;7.45;;
15952;SDS011;8075;47.766;8.846;2024-01-15T03:14:04;8.70;;;7.43;;
15952;SDS011;8075;47.766;8.846;2024-01-15T03:16:30;9.18;;;7.30;;
15952;SDS011;8075;47.766;8.846;2024-01-15T03:18:56;9.93;;;7.63;;
15952;SDS011;8075;47.766;8.846;2024-01-15T03:21:22;8.60;;;7.15;;
15952;SDS011;8075;47.766;8.846;2024-01-15T03:23:48;8.43;;;7.10;;
15952;SDS011;8075;47.766;8.846;2024-01-15T03:26:14;8.85;;;7.65;;
15952;SDS011;8075;47.766;8.846;2024-01-15T03:28:40;9.65;;;7.63;;
15952;SDS011;8075;47.766;8.846;2024-01-15T03:31:07;9.80;;;7.72;;
15952;SDS011;8075;47.766;8.846;2024-01-15T03:33:33;9.95;;;8.10;;
15952;SDS011;8075;47.766;8.846;2024-01-15T03:35:59;9.20;;;7.70;;
15952;SDS011;8075;47.766;8.846;2024-01-15T03:38:27;10.00;;;8.00;;
15952;SDS011;8075;47.766;8.846;2024-01-15T03:40:53;10.13;;;7.73;;
15952;SDS011;8075;47.766;8.846;2024-01-15T03:43:19;10.30;;;7.95;;
15952;SDS011;8075;47.766;8.846;2024-01-15T03:45:45;8.90;;;7.50;;
15952;SDS011;8075;47.766;8.846;2024-01-15T03:48:11;8.77;;;7.63;;
15952;SDS011;8075;47.766;8.846;2024-01-15T03:50:37;8.52;;;7.35;;
15952;SDS011;8075;47.766;8.846;2024-01-15T03:53:03;9.27;;;7.65;;
15952;SDS011;8075;47.766;8.846;2024-01-15T03:55:29;9.18;;;7.43;;
15952;SDS011;8075;47.766;8.846;2024-01-15T03:57:55;10.20;;;8.13;;
15952;SDS011;8075;47.766;8.846;2024-01-15T04:00:21;10.82;;;8.82;;
15952;SDS011;8075;47.766;8.846;2024-01-15T04:02:47;10.63;;;8.37;;
15952;SDS011;8075;47.766;8.846;2024-01-15T04:05:13;9.30;;;7.38;;
15952;SDS011;8075;47.766;8.846;2024-01-15T04:07:39;9.38;;;7.68;;
15952;SDS011;8075;47.766;8.846;2024-01-15T04:10:05;10.80;;;8.40;;
15952;SDS011;8075;47.766;8.846;2024-01-15T04:12:31;9.10;;;7.88;;
15952;SDS011;8075;47.766;8.846;2024-01-15T04:14:57;9.85;;;7.78;;
15952;SDS011;8075;47.766;8.846;2024-01-15T04:17:23;8.20;;;7.30;;
15952;SDS011;8075;47.766;8.846;2024-01-15T04:19:49;9.15;;;7.65;;
15952;SDS011;8075;47.766;8.846;2024-01-15T04:22:15;9.73;;;7.35;;
15952;SDS011;8075;47.766;8.846;2024-01-15T04:24:41;10.60;;;8.23;;
15952;SDS011;8075;47.766;8.846;2024-01-15T04:27:07;9.55;;;7.85;;
15952;SDS011;8075;47.766;8.846;2024-01-15T04:29:33;8.63;;;7.20;;
15952;SDS011;8075;47.766;8.846;2024-01-15T04:31:59;10.15;;;7.93;;
15952;SDS011;8075;47.766;8.846;2024-01-15T04:34:25;8.82;;;7.45;;
15952;SDS011;8075;47.766;8.846;2024-01-15T04:36:51;9.93;;;8.43;;
15952;SDS011;8075;47.766;8.846;2024-01-15T04:39:17;9.60;;;7.90;;
15952;SDS011;8075;47.766;8.846;2024-01-15T04:41:43;10.18;;;8.15;;
15952;SDS011;8075;47.766;8.846;2024-01-15T04:44:09;12.13;;;8.90;;
15952;SDS011;8075;47.766;8.846;2024-01-15T04:46:35;11.20;;;9.15;;
15952;SDS011;8075;47.766;8.846;2024-01-15T04:49:01;12.18;;;9.60;;
15952;SDS011;8075;47.766;8.846;2024-01-15T04:51:27;13.93;;;9.40;;
15952;SDS011;8075;47.766;8.846;2024-01-15T04:53:53;14.35;;;9.90;;
15952;SDS011;8075;47.766;8.846;2024-01-15T04:56:19;12.80;;;9.18;;
15952;SDS011;8075;47.766;8.846;2024-01-15T04:58:45;15.88;;;10.00;;
15952;SDS011;8075;47.766;8.846;2024-01-15T05:01:11;15.82;;;10.05;;
15952;SDS011;8075;47.766;8.846;2024-01-15T05:03:37;14.00;;;9.68;;
15952;SDS011;8075;47.766;8.846;2024-01-15T05:06:04;14.15;;;10.30;;
15952;SDS011;8075;47.766;8.846;2024-01-15T05:08:30;15.30;;;9.57;;
15952;SDS011;8075;47.766;8.846;2024-01-15T05:10:56;13.83;;;8.50;;
15952;SDS011;8075;47.766;8.846;2024-01-15T05:13:22;7.18;;;5.18;;
15952;SDS011;8075;47.766;8.846;2024-01-15T05:15:48;5.57;;;4.43;;
15952;SDS011;8075;47.766;8.846;2024-01-15T05:18:14;5.95;;;4.30;;
15952;SDS011;8075;47.766;8.846;2024-01-15T05:20:40;3.65;;;2.75;;
15952;SDS011;8075;47.766;8.846;2024-01-15T05:23:07;3.60;;;2.95;;
15952;SDS011;8075;47.766;8.846;2024-01-15T05:25:33;3.85;;;3.20;;
15952;SDS011;8075;47.766;8.846;2024-01-15T05:27:59;3.38;;;2.60;;
15952;SDS011;8075;47.766;8.846;2024-01-15T05:30:25;5.90;;;4.60;;
15952;SDS011;8075;47.766;8.846;2024-01-15T05:32:51;5.47;;;4.43;;
15952;SDS011;8075;47.766;8.846;2024-01-15T05:35:17;5.57;;;4.10;;
15952;SDS011;8075;47.766;8.846;2024-01-15T05:37:43;3.35;;;2.78;;
15952;SDS011;8075;47.766;8.846;2024-01-15T05:40:10;3.30;;;3.00;;
15952;SDS011;8075;47.766;8.846;2024-01-15T05:42:36;4.05;;;2.60;;
15952;SDS011;8075;47.766;8.846;2024-01-15T05:45:02;3.50;;;2.50;;
15952;SDS011;8075;47.766;8.846;2024-01-15T05:47:29;3.80;;;2.38;;
15952;SDS011;8075;47.766;8.846;2024-01-15T05:49:56;3.65;;;2.35;;
15952;SDS011;8075;47.766;8.846;2024-01-15T05:52:22;2.85;;;2.40;;
15952;SDS011;8075;47.766;8.846;2024-01-15T05:54:49;3.03;;;2.60;;
15952;SDS011;8075;47.766;8.846;2024-01-15T05:57:15;3.20;;;2.72;;
15952;SDS011;8075;47.766;8.846;2024-01-15T05:59:42;3.50;;;2.77;;
15952;SDS011;8075;47.766;8.846;2024-01-15T06:02:08;3.83;;;2.73;;
15952;SDS011;8075;47.766;8.846;2024-01-15T06:04:34;4.40;;;2.80;;
15952;SDS011;8075;47.766;8.846;2024-01-15T06:07:00;3.63;;;3.30;;
15952;SDS011;8075;47.766;8.846;2024-01-15T06:09:26;3.42;;;2.58;;
15952;SDS011;8075;47.766;8.846;2024-01-15T06:11:53;3.53;;;2.95;;
15952;SDS011;8075;47.766;8.846;2024-01-15T06:14:19;6.15;;;3.13;;
15952;SDS011;8075;47.766;8.846;2024-01-15T06:16:45;4.07;;;3.28;;
15952;SDS011;8075;47.766;8.846;2024-01-15T06:19:11;4.00;;;3.05;;
15952;SDS011;8075;47.766;8.846;2024-01-15T06:21:37;4.53;;;3.30;;
15952;SDS011;8075;47.766;8.846;2024-01-15T06:24:03;5.00;;;3.78;;
15952;SDS011;8075;47.766;8.846;2024-01-15T06:26:29;4.95;;;3.75;;
15952;SDS011;8075;47.766;8.846;2024-01-15T06:28:55;5.85;;;4.40;;
15952;SDS011;8075;47.766;8.846;2024-01-15T06:31:21;5.33;;;3.90;;
15952;SDS011;8075;47.766;8.846;2024-01-15T06:33:47;6.35;;;4.53;;
15952;SDS011;8075;47.766;8.846;2024-01-15T06:36:14;7.57;;;5.43;;
15952;SDS011;8075;47.766;8.846;2024-01-15T06:38:41;8.07;;;5.47;;
15952;SDS011;8075;47.766;8.846;2024-01-15T06:41:07;8.50;;;6.28;;
15952;SDS011;8075;47.766;8.846;2024-01-15T06:43:33;8.50;;;5.75;;
15952;SDS011;8075;47.766;8.846;2024-01-15T06:45:59;8.63;;;6.70;;
15952;SDS011;8075;47.766;8.846;2024-01-15T06:48:25;8.38;;;6.20;;
15952;SDS011;8075;47.766;8.846;2024-01-15T06:50:51;7.43;;;5.40;;
15952;SDS011;8075;47.766;8.846;2024-01-15T06:53:17;7.10;;;5.63;;
15952;SDS011;8075;47.766;8.846;2024-01-15T06:55:43;7.90;;;6.13;;
15952;SDS011;8075;47.766;8.846;2024-01-15T06:58:09;7.78;;;5.80;;
15952;SDS011;8075;47.766;8.846;2024-01-15T07:00:35;8.68;;;5.82;;
15952;SDS011;8075;47.766;8.846;2024-01-15T07:03:01;7.93;;;6.30;;
15952;SDS011;8075;47.766;8.846;2024-01-15T07:05:27;7.28;;;5.20;;
15952;SDS011;8075;47.766;8.846;2024-01-15T07:07:55;7.78;;;5.85;;
15952;SDS011;8075;47.766;8.846;2024-01-15T07:10:21;8.50;;;6.40;;
15952;SDS011;8075;47.766;8.846;2024-01-15T07:12:47;9.95;;;6.85;;
15952;SDS011;8075;47.766;8.846;2024-01-15T07:15:13;9.35;;;6.47;;
15952;SDS011;8075;47.766;8.846;2024-01-15T07:17:39;10.60;;;7.28;;
15952;SDS011;8075;47.766;8.846;2024-01-15T07:20:06;11.77;;;8.03;;
15952;SDS011;8075;47.766;8.846;2024-01-15T07:22:33;9.73;;;7.72;;
15952;SDS011;8075;47.766;8.846;2024-01-15T07:24:59;11.90;;;8.45;;
15952;SDS011;8075;47.766;8.846;2024-01-15T07:27:25;12.48;;;8.75;;
15952;SDS011;8075;47.766;8.846;2024-01-15T07:29:51;12.32;;;8.70;;
15952;SDS011;8075;47.766;8.846;2024-01-15T07:32:17;13.95;;;9.38;;
15952;SDS011;8075;47.766;8.846;2024-01-15T07:34:43;11.30;;;8.15;;
15952;SDS011;8075;47.766;8.846;2024-01-15T07:37:09;12.80;;;8.80;;
15952;SDS011;8075;47.766;8.846;2024-01-15T07:39:35;11.23;;;8.57;;
15952;SDS011;8075;47.766;8.846;2024-01-15T07:42:01;13.17;;;8.83;;
15952;SDS011;8075;47.766;8.846;2024-01-15T07:44:27;12.02;;;9.25;;
15952;SDS011;8075;47.766;8.846;2024-01-15T07:46:53;11.48;;;8.15;;
15952;SDS011;8075;47.766;8.846;2024-01-15T07:49:19;13.27;;;9.32;;
15952;SDS011;8075;47.766;8.846;2024-01-15T07:51:45;13.13;;;9.10;;
15952;SDS011;8075;47.766;8.846;2024-01-15T07:54:11;10.90;;;8.55;;
15952;SDS011;8075;47.766;8.846;2024-01-15T07:56:56;10.30;;;7.85;;
15952;SDS011;8075;47.766;8.846;2024-01-15T07:59:22;12.63;;;8.60;;
15952;SDS011;8075;47.766;8.846;2024-01-15T08:01:48;11.57;;;8.68;;
15952;SDS011;8075;47.766;8.846;2024-01-15T08:04:14;12.00;;;9.05;;
15952;SDS011;8075;47.766;8.846;2024-01-15T08:06:40;10.20;;;8.20;;
15952;SDS011;8075;47.766;8.846;2024-01-15T08:09:06;11.90;;;8.55;;
15952;SDS011;8075;47.766;8.846;2024-01-15T08:11:33;10.65;;;8.38;;
15952;SDS011;8075;47.766;8.846;2024-01-15T08:13:59;9.85;;;7.90;;
15952;SDS011;8075;47.766;8.846;2024-01-15T08:16:25;10.05;;;7.93;;
15952;SDS011;8075;47.766;8.846;2024-01-15T08:18:52;9.35;;;7.68;;
15952;SDS011;8075;47.766;8.846;2024-01-15T08:21:18;11.15;;;8.60;;
15952;SDS011;8075;47.766;8.846;2024-01-15T08:23:44;10.90;;;8.63;;
15952;SDS011;8075;47.766;8.846;2024-01-15T08:26:10;18.73;;;10.73;;
15952;SDS011;8075;47.766;8.846;2024-01-15T08:28:36;9.30;;;6.97;;
15952;SDS011;8075;47.766;8.846;2024-01-15T08:31:02;11.40;;;8.43;;
15952;SDS011;8075;47.766;8.846;2024-01-15T08:33:29;9.82;;;7.38;;
15952;SDS011;8075;47.766;8.846;2024-01-15T08:35:55;10.45;;;7.78;;
15952;SDS011;8075;47.766;8.846;2024-01-15T08:38:21;8.05;;;6.90;;
15952;SDS011;8075;47.766;8.846;2024-01-15T08:40:47;9.32;;;6.75;;
15952;SDS011;8075;47.766;8.846;2024-01-15T08:43:13;8.55;;;6.68;;
15952;SDS011;8075;47.766;8.846;2024-01-15T08:45:39;9.60;;;7.40;;
15952;SDS011;8075;47.766;8.846;2024-01-15T08:48:05;10.20;;;8.25;;
15952;SDS011;8075;47.766;8.846;2024-01-15T08:50:32;10.97;;;8.90;;
15952;SDS011;8075;47.766;8.846;2024-01-15T08:52:58;11.73;;;9.10;;
15952;SDS011;8075;47.766;8.846;2024-01-15T08:55:24;14.38;;;9.43;;
15952;SDS011;8075;47.766;8.846;2024-01-15T08:57:50;12.00;;;9.10;;
15952;SDS011;8075;47.766;8.846;2024-01-15T09:00:17;14.25;;;9.82;;
15952;SDS011;8075;47.766;8.846;2024-01-15T09:02:43;11.93;;;8.60;;
15952;SDS011;8075;47.766;8.846;2024-01-15T09:05:09;12.93;;;8.93;;
15952;SDS011;8075;47.766;8.846;2024-01-15T09:07:35;13.82;;;9.35;;
15952;SDS011;8075;47.766;8.846;2024-01-15T09:10:01;13.90;;;8.77;;
15952;SDS011;8075;47.766;8.846;2024-01-15T09:12:28;15.02;;;10.00;;
15952;SDS011;8075;47.766;8.846;2024-01-15T09:14:54;12.85;;;9.70;;
15952;SDS011;8075;47.766;8.846;2024-01-15T09:17:20;16.70;;;10.38;;
15952;SDS011;8075;47.766;8.846;2024-01-15T09:19:48;14.77;;;10.43;;
15952;SDS011;8075;47.766;8.846;2024-01-15T09:22:14;15.50;;;10.60;;
15952;SDS011;8075;47.766;8.846;2024-01-15T09:24:43;15.13;;;10.32;;
15952;SDS011;8075;47.766;8.846;2024-01-15T09:27:09;16.37;;;10.70;;
15952;SDS011;8075;47.766;8.846;2024-01-15T09:29:35;14.52;;;10.55;;
15952;SDS011;8075;47.766;8.846;2024-01-15T09:32:06;17.17;;;10.95;;
15952;SDS011;8075;47.766;8.846;2024-01-15T09:34:33;17.75;;;10.90;;
15952;SDS011;8075;47.766;8.846;2024-01-15T09:36:59;19.05;;;11.18;;
15952;SDS011;8075;47.766;8.846;2024-01-15T09:39:25;18.88;;;11.00;;
15952;SDS011;8075;47.766;8.846;2024-01-15T09:41:52;17.42;;;11.25;;
15952;SDS011;8075;47.766;8.846;2024-01-15T09:44:18;17.83;;;11.88;;
15952;SDS011;8075;47.766;8.846;2024-01-15T09:46:45;17.75;;;10.95;;
15952;SDS011;8075;47.766;8.846;2024-01-15T09:49:14;18.13;;;11.27;;
15952;SDS011;8075;47.766;8.846;2024-01-15T09:51:41;16.27;;;10.82;;
15952;SDS011;8075;47.766;8.846;2024-01-15T09:54:08;18.88;;;11.52;;
15952;SDS011;8075;47.766;8.846;2024-01-15T09:56:34;18.02;;;11.40;;
15952;SDS011;8075;47.766;8.846;2024-01-15T09:59:00;16.50;;;10.30;;
15952;SDS011;8075;47.766;8.846;2024-01-15T10:01:27;16.98;;;10.85;;
15952;SDS011;8075;47.766;8.846;2024-01-15T10:03:54;16.17;;;10.25;;
15952;SDS011;8075;47.766;8.846;2024-01-15T10:06:21;14.75;;;10.00;;
15952;SDS011;8075;47.766;8.846;2024-01-15T10:08:48;14.43;;;9.73;;
15952;SDS011;8075;47.766;8.846;2024-01-15T10:11:15;14.20;;;9.32;;
15952;SDS011;8075;47.766;8.846;2024-01-15T10:13:43;14.55;;;9.07;;
15952;SDS011;8075;47.766;8.846;2024-01-15T10:16:09;12.43;;;8.93;;
15952;SDS011;8075;47.766;8.846;2024-01-15T10:18:36;12.00;;;8.77;;
15952;SDS011;8075;47.766;8.846;2024-01-15T10:21:04;12.50;;;8.63;;
15952;SDS011;8075;47.766;8.846;2024-01-15T10:23:31;11.68;;;8.50;;
15952;SDS011;8075;47.766;8.846;2024-01-15T10:25:58;12.00;;;8.20;;
15952;SDS011;8075;47.766;8.846;2024-01-15T10:28:25;12.88;;;8.43;;
15952;SDS011;8075;47.766;8.846;2024-01-15T10:30:52;10.75;;;8.13;;
15952;SDS011;8075;47.766;8.846;2024-01-15T10:33:19;10.27;;;7.73;;
15952;SDS011;8075;47.766;8.846;2024-01-15T10:35:50;11.57;;;7.70;;
15952;SDS011;8075;47.766;8.846;2024-01-15T10:38:16;11.55;;;7.97;;
15952;SDS011;8075;47.766;8.846;2024-01-15T10:40:45;11.20;;;7.40;;
15952;SDS011;8075;47.766;8.846;2024-01-15T10:43:11;11.68;;;7.82;;
15952;SDS011;8075;47.766;8.846;2024-01-15T10:45:37;9.77;;;7.53;;
15952;SDS011;8075;47.766;8.846;2024-01-15T10:48:03;10.40;;;7.18;;
15952;SDS011;8075;47.766;8.846;2024-01-15T10:50:29;9.10;;;7.05;;
15952;SDS011;8075;47.766;8.846;2024-01-15T10:52:57;10.95;;;6.60;;
15952;SDS011;8075;47.766;8.846;2024-01-15T10:55:23;8.73;;;6.38;;
15952;SDS011;8075;47.766;8.846;2024-01-15T10:57:49;9.50;;;6.53;;
15952;SDS011;8075;47.766;8.846;2024-01-15T11:00:16;9.20;;;6.80;;
15952;SDS011;8075;47.766;8.846;2024-01-15T11:02:42;8.02;;;6.20;;
15952;SDS011;8075;47.766;8.846;2024-01-15T11:05:09;7.80;;;6.38;;
15952;SDS011;8075;47.766;8.846;2024-01-15T11:07:35;6.47;;;5.60;;
15952;SDS011;8075;47.766;8.846;2024-01-15T11:10:05;7.25;;;5.70;;
15952;SDS011;8075;47.766;8.846;2024-01-15T11:12:35;7.57;;;6.03;;
15952;SDS011;8075;47.766;8.846;2024-01-15T11:15:02;8.52;;;6.78;;
15952;SDS011;8075;47.766;8.846;2024-01-15T11:20:18;7.95;;;6.40;;
15952;SDS011;8075;47.766;8.846;2024-01-15T11:22:48;9.43;;;6.25;;
15952;SDS011;8075;47.766;8.846;2024-01-15T11:25:14;8.60;;;6.10;;
15952;SDS011;8075;47.766;8.846;2024-01-15T11:27:41;7.78;;;6.20;;
15952;SDS011;8075;47.766;8.846;2024-01-15T11:30:07;7.65;;;5.20;;
15952;SDS011;8075;47.766;8.846;2024-01-15T11:32:37;8.90;;;6.25;;
15952;SDS011;8075;47.766;8.846;2024-01-15T11:35:06;6.78;;;5.63;;
15952;SDS011;8075;47.766;8.846;2024-01-15T11:40:43;7.78;;;5.97;;
15952;SDS011;8075;47.766;8.846;2024-01-15T11:43:09;7.35;;;6.07;;
15952;SDS011;8075;47.766;8.846;2024-01-15T11:45:35;7.30;;;5.70;;
15952;SDS011;8075;47.766;8.846;2024-01-15T11:48:14;6.18;;;5.57;;
15952;SDS011;8075;47.766;8.846;2024-01-15T11:50:49;6.65;;;5.35;;
15952;SDS011;8075;47.766;8.846;2024-01-15T11:56:01;7.75;;;5.85;;
15952;SDS011;8075;47.766;8.846;2024-01-15T11:58:27;6.87;;;5.73;;
15952;SDS011;8075;47.766;8.846;2024-01-15T12:00:54;6.70;;;5.18;;
15952;SDS011;8075;47.766;8.846;2024-01-15T12:03:20;8.05;;;5.82;;
15952;SDS011;8075;47.766;8.846;2024-01-15T12:05:47;7.63;;;5.55;;
15952;SDS011;8075;47.766;8.846;2024-01-15T12:08:13;13.40;;;5.90;;
15952;SDS011;8075;47.766;8.846;2024-01-15T12:10:39;8.75;;;5.50;;
15952;SDS011;8075;47.766;8.846;2024-01-15T12:15:38;6.97;;;5.40;;
15952;SDS011;8075;47.766;8.846;2024-01-15T12:18:08;6.63;;;5.60;;
15952;SDS011;8075;47.766;8.846;2024-01-15T12:20:34;6.63;;;5.05;;
15952;SDS011;8075;47.766;8.846;2024-01-15T12:23:01;9.03;;;5.77;;
15952;SDS011;8075;47.766;8.846;2024-01-15T12:25:31;8.88;;;5.55;;
15952;SDS011;8075;47.766;8.846;2024-01-15T12:27:57;6.88;;;5.40;;
15952;SDS011;8075;47.766;8.846;2024-01-15T12:30:25;6.55;;;5.47;;
15952;SDS011;8075;47.766;8.846;2024-01-15T12:32:51;7.35;;;5.38;;
15952;SDS011;8075;47.766;8.846;2024-01-15T12:35:17;6.63;;;5.10;;
15952;SDS011;8075;47.766;8.846;2024-01-15T12:37:43;6.75;;;5.25;;
15952;SDS011;8075;47.766;8.846;2024-01-15T12:40:11;6.97;;;5.88;;
15952;SDS011;8075;47.766;8.846;2024-01-15T12:42:39;6.70;;;5.40;;
15952;SDS011;8075;47.766;8.846;2024-01-15T12:45:05;6.63;;;5.00;;
15952;SDS011;8075;47.766;8.846;2024-01-15T12:47:32;6.93;;;5.47;;
15952;SDS011;8075;47.766;8.846;2024-01-15T12:49:58;9.23;;;6.13;;
15952;SDS011;8075;47.766;8.846;2024-01-15T12:52:26;6.53;;;5.38;;
15952;SDS011;8075;47.766;8.846;2024-01-15T12:54:52;5.90;;;5.00;;
15952;SDS011;8075;47.766;8.846;2024-01-15T12:57:18;6.20;;;5.60;;
15952;SDS011;8075;47.766;8.846;2024-01-15T12:59:44;8.63;;;5.70;;
15952;SDS011;8075;47.766;8.846;2024-01-15T13:02:11;8.75;;;5.40;;
15952;SDS011;8075;47.766;8.846;2024-01-15T13:04:38;7.00;;;5.72;;
15952;SDS011;8075;47.766;8.846;2024-01-15T13:07:05;8.43;;;5.72;;
15952;SDS011;8075;47.766;8.846;2024-01-15T13:09:31;6.30;;;5.28;;
15952;SDS011;8075;47.766;8.846;2024-01-15T13:11:57;6.45;;;4.97;;
15952;SDS011;8075;47.766;8.846;2024-01-15T13:14:23;7.20;;;5.43;;
15952;SDS011;8075;47.766;8.846;2024-01-15T13:16:49;7.43;;;5.43;;
15952;SDS011;8075;47.766;8.846;2024-01-15T13:19:15;7.13;;;5.25;;
15952;SDS011;8075;47.766;8.846;2024-01-15T13:21:41;5.75;;;5.15;;
15952;SDS011;8075;47.766;8.846;2024-01-15T13:24:07;6.80;;;4.72;;
15952;SDS011;8075;47.766;8.846;2024-01-15T13:26:34;4.78;;;4.30;;
15952;SDS011;8075;47.766;8.846;2024-01-15T13:29:03;4.30;;;3.70;;
15952;SDS011;8075;47.766;8.846;2024-01-15T13:31:29;6.05;;;4.05;;
15952;SDS011;8075;47.766;8.846;2024-01-15T13:33:55;4.85;;;3.95;;
15952;SDS011;8075;47.766;8.846;2024-01-15T13:36:22;5.45;;;3.95;;
15952;SDS011;8075;47.766;8.846;2024-01-15T13:38:49;5.03;;;4.07;;
15952;SDS011;8075;47.766;8.846;2024-01-15T13:41:15;5.75;;;4.07;;
15952;SDS011;8075;47.766;8.846;2024-01-15T13:43:43;5.03;;;4.23;;
15952;SDS011;8075;47.766;8.846;2024-01-15T13:46:12;6.25;;;5.40;;
15952;SDS011;8075;47.766;8.846;2024-01-15T13:48:38;6.10;;;4.93;;
15952;SDS011;8075;47.766;8.846;2024-01-15T13:51:04;6.05;;;4.63;;
15952;SDS011;8075;47.766;8.846;2024-01-15T13:53:31;5.72;;;4.32;;
15952;SDS011;8075;47.766;8.846;2024-01-15T13:55:57;5.78;;;4.88;;
15952;SDS011;8075;47.766;8.846;2024-01-15T13:58:23;5.55;;;4.85;;
15952;SDS011;8075;47.766;8.846;2024-01-15T14:00:50;7.18;;;5.07;;
15952;SDS011;8075;47.766;8.846;2024-01-15T14:03:17;6.22;;;4.57;;
15952;SDS011;8075;47.766;8.846;2024-01-15T14:05:44;6.45;;;5.70;;
15952;SDS011;8075;47.766;8.846;2024-01-15T14:08:10;7.63;;;5.57;;
15952;SDS011;8075;47.766;8.846;2024-01-15T14:10:36;7.20;;;6.00;;
15952;SDS011;8075;47.766;8.846;2024-01-15T14:13:02;7.07;;;6.20;;
15952;SDS011;8075;47.766;8.846;2024-01-15T14:15:29;7.88;;;6.10;;
15952;SDS011;8075;47.766;8.846;2024-01-15T14:17:55;7.07;;;6.10;;
15952;SDS011;8075;47.766;8.846;2024-01-15T14:20:21;7.07;;;6.38;;
15952;SDS011;8075;47.766;8.846;2024-01-15T14:22:47;7.63;;;6.45;;
15952;SDS011;8075;47.766;8.846;2024-01-15T14:25:13;8.77;;;6.68;;
15952;SDS011;8075;47.766;8.846;2024-01-15T14:27:39;6.95;;;6.25;;
15952;SDS011;8075;47.766;8.846;2024-01-15T14:30:05;7.60;;;6.35;;
15952;SDS011;8075;47.766;8.846;2024-01-15T14:32:33;11.30;;;7.25;;
15952;SDS011;8075;47.766;8.846;2024-01-15T14:34:59;7.28;;;6.00;;
15952;SDS011;8075;47.766;8.846;2024-01-15T14:37:25;8.40;;;7.28;;
15952;SDS011;8075;47.766;8.846;2024-01-15T14:39:51;9.18;;;7.03;;
15952;SDS011;8075;47.766;8.846;2024-01-15T14:42:17;10.43;;;7.40;;
15952;SDS011;8075;47.766;8.846;2024-01-15T14:44:43;9.05;;;6.85;;
15952;SDS011;8075;47.766;8.846;2024-01-15T14:47:09;8.15;;;6.65;;
15952;SDS011;8075;47.766;8.846;2024-01-15T14:49:35;7.93;;;6.83;;
15952;SDS011;8075;47.766;8.846;2024-01-15T14:52:01;11.68;;;6.72;;
15952;SDS011;8075;47.766;8.846;2024-01-15T14:54:28;8.75;;;7.05;;
15952;SDS011;8075;47.766;8.846;2024-01-15T14:56:53;8.23;;;6.57;;
15952;SDS011;8075;47.766;8.846;2024-01-15T14:59:21;7.13;;;6.00;;
15952;SDS011;8075;47.766;8.846;2024-01-15T15:01:48;7.38;;;6.10;;